createdAt,value
2017-11-04T00:02:04.023Z,64.4
2017-11-04T00:07:03.804Z,64.3
2017-11-04T00:12:02.995Z,64.4
2017-11-04T00:17:03.342Z,64.3
2017-11-04T00:22:03.462Z,64.1
2017-11-04T00:27:03.701Z,64.1
2017-11-04T00:32:03.761Z,64.2
2017-11-04T00:37:03.295Z,64.2
2017-11-04T00:42:03.439Z,64.1
2017-11-04T00:47:03.638Z,64.1
2017-11-04T00:52:03.350Z,64.0
2017-11-04T00:57:03.398Z,64.5
2017-11-04T01:02:03.594Z,64.6
2017-11-04T01:07:03.614Z,64.2
2017-11-04T01:12:04.035Z,64.0
2017-11-04T01:17:03.249Z,63.9
2017-11-04T01:22:03.581Z,64.2
2017-11-04T01:27:03.713Z,63.7
2017-11-04T01:32:03.955Z,64.0
2017-11-04T01:37:03.818Z,64.3
2017-11-04T01:42:03.117Z,64.3
2017-11-04T01:47:03.470Z,63.8
2017-11-04T01:52:03.300Z,63.8
2017-11-04T01:57:03.573Z,63.9
2017-11-04T02:02:03.849Z,63.7
2017-11-04T02:07:03.146Z,63.6
2017-11-04T02:12:03.532Z,63.8
2017-11-04T02:17:03.794Z,63.4
2017-11-04T02:22:03.852Z,63.4
2017-11-04T02:27:03.731Z,63.8
2017-11-04T02:32:03.942Z,63.8
2017-11-04T02:37:03.713Z,63.4
2017-11-04T02:42:03.648Z,63.6
2017-11-04T02:47:03.886Z,63.5
2017-11-04T02:52:03.890Z,63.4
2017-11-04T02:57:03.081Z,63.4
2017-11-04T03:02:03.068Z,63.3
2017-11-04T03:07:03.716Z,63.8
2017-11-04T03:12:03.921Z,63.6
2017-11-04T03:17:03.270Z,64.0
2017-11-04T03:22:03.303Z,63.4
2017-11-04T03:27:03.396Z,63.4
2017-11-04T03:32:03.502Z,63.9
2017-11-04T03:37:03.514Z,63.9
2017-11-04T03:42:03.634Z,63.8
2017-11-04T03:47:03.998Z,63.9
2017-11-04T03:52:03.300Z,63.9
2017-11-04T03:57:03.486Z,63.8
2017-11-04T04:02:03.774Z,64.0
2017-11-04T04:07:03.380Z,63.9
2017-11-04T04:12:03.599Z,64.0
2017-11-04T04:17:04.054Z,64.1
2017-11-04T04:22:03.319Z,64.1
2017-11-04T04:27:03.536Z,64.2
2017-11-04T04:32:03.836Z,64.3
2017-11-04T04:37:03.157Z,64.3
2017-11-04T04:42:03.353Z,64.2
2017-11-04T04:47:03.663Z,64.3
2017-11-04T04:52:03.961Z,64.3
2017-11-04T04:57:03.199Z,64.2
2017-11-04T05:02:03.539Z,64.3
2017-11-04T05:07:03.792Z,64.3
2017-11-04T05:12:03.314Z,64.3
2017-11-04T05:17:03.509Z,64.4
2017-11-04T05:22:03.844Z,64.3
2017-11-04T05:27:03.160Z,64.6
2017-11-04T05:32:03.443Z,64.5
2017-11-04T05:37:03.623Z,64.8
2017-11-04T05:42:03.798Z,64.8
2017-11-04T05:47:07.799Z,64.8
2017-11-04T05:52:03.439Z,64.5
2017-11-04T05:57:03.315Z,64.5
2017-11-04T06:02:25.187Z,64.4
2017-11-04T06:07:03.560Z,64.4
2017-11-04T06:12:04.032Z,64.4
2017-11-04T06:17:28.434Z,64.6
2017-11-04T06:22:03.319Z,64.3
2017-11-04T06:27:03.995Z,64.2
2017-11-04T06:32:26.201Z,64.3
2017-11-04T06:37:03.582Z,64.2
2017-11-04T06:42:03.907Z,64.4
2017-11-04T06:47:28.830Z,64.5
2017-11-04T06:52:03.716Z,64.9
2017-11-04T06:57:03.091Z,64.7
2017-11-04T07:02:23.928Z,64.5
2017-11-04T07:07:03.121Z,64.1
2017-11-04T07:12:03.610Z,64.1
2017-11-04T07:17:22.506Z,64.3
2017-11-04T07:22:03.904Z,64.3
2017-11-04T07:27:03.374Z,64.4
2017-11-04T07:32:28.831Z,64.7
2017-11-04T07:37:03.625Z,64.7
2017-11-04T07:42:03.016Z,64.7
2017-11-04T07:47:23.659Z,64.5
2017-11-04T07:52:03.384Z,64.5
2017-11-04T07:57:03.703Z,64.4
2017-11-04T08:02:22.656Z,64.2
2017-11-04T08:07:03.539Z,64.0
2017-11-04T08:12:03.085Z,64.0
2017-11-04T08:17:28.439Z,63.8
2017-11-04T08:22:03.829Z,63.9
2017-11-04T08:27:03.227Z,63.8
2017-11-04T08:32:28.297Z,63.7
2017-11-04T08:37:03.290Z,63.6
2017-11-04T08:42:03.613Z,63.5
2017-11-04T08:47:23.397Z,63.7
2017-11-04T08:52:03.070Z,63.6
2017-11-04T08:57:03.544Z,63.8
2017-11-04T09:02:24.036Z,63.8
2017-11-04T09:07:03.485Z,63.8
2017-11-04T09:12:03.105Z,64.2
2017-11-04T09:17:21.301Z,64.2
2017-11-04T09:22:03.180Z,64.0
2017-11-04T09:27:03.596Z,64.2
2017-11-04T09:32:32.993Z,64.6
2017-11-04T09:37:03.380Z,65.0
2017-11-04T09:42:03.705Z,65.2
2017-11-04T09:47:23.604Z,65.2
2017-11-04T09:52:03.105Z,65.2
2017-11-04T09:57:03.553Z,65.0
2017-11-04T10:02:33.590Z,65.3
2017-11-04T10:07:03.777Z,65.3
2017-11-04T10:12:03.363Z,65.6
2017-11-04T10:17:22.325Z,66.0
2017-11-04T10:22:03.935Z,66.2
2017-11-04T10:27:03.432Z,66.1
2017-11-04T10:32:28.278Z,66.4
2017-11-04T10:37:03.060Z,66.7
2017-11-04T10:42:03.466Z,66.8
2017-11-04T10:47:24.018Z,66.9
2017-11-04T10:52:03.302Z,66.7
2017-11-04T10:57:03.710Z,67.0
2017-11-04T11:02:23.625Z,67.2
2017-11-04T11:07:03.732Z,67.2
2017-11-04T11:12:03.338Z,66.8
2017-11-04T11:17:23.686Z,66.8
2017-11-04T11:22:03.287Z,67.1
2017-11-04T11:27:03.649Z,67.1
2017-11-04T11:32:28.453Z,68.1
2017-11-04T11:37:03.405Z,68.0
2017-11-04T11:42:03.671Z,68.4
2017-11-04T11:47:22.908Z,68.3
2017-11-04T11:52:03.503Z,68.6
2017-11-04T11:57:03.870Z,68.9
2017-11-04T12:02:29.982Z,69.3
2017-11-04T12:07:03.793Z,69.8
2017-11-04T12:12:03.369Z,69.6
2017-11-04T12:17:32.682Z,69.6
2017-11-04T12:22:03.128Z,69.9
2017-11-04T12:27:03.802Z,69.5
2017-11-04T12:32:20.079Z,69.1
2017-11-04T12:37:03.727Z,69.1
2017-11-04T12:42:03.108Z,69.3
2017-11-04T12:47:27.748Z,69.6
2017-11-04T12:52:03.387Z,69.5
2017-11-04T12:57:03.704Z,69.4
2017-11-04T13:02:19.351Z,69.5
2017-11-04T13:07:03.536Z,69.4
2017-11-04T13:12:03.735Z,69.7
2017-11-04T13:17:21.511Z,69.8
2017-11-04T13:22:03.066Z,69.7
2017-11-04T13:27:03.940Z,69.7
2017-11-04T13:32:21.931Z,69.5
2017-11-04T13:37:03.444Z,69.5
2017-11-04T13:42:03.930Z,69.5
2017-11-04T13:47:04.163Z,69.3
2017-11-04T13:52:02.997Z,68.0
2017-11-04T13:57:03.434Z,68.2
2017-11-04T14:02:05.221Z,68.4
2017-11-04T14:07:03.210Z,68.4
2017-11-04T14:12:03.584Z,66.4
2017-11-04T14:17:26.390Z,63.6
2017-11-04T14:22:03.256Z,63.1
2017-11-04T14:27:03.601Z,63.0
2017-11-04T14:32:26.596Z,63.2
2017-11-04T14:37:03.781Z,65.8
2017-11-04T14:42:04.016Z,68.7
2017-11-04T14:47:27.915Z,69.7
2017-11-04T14:52:03.001Z,70.2
2017-11-04T14:57:03.422Z,68.6
2017-11-04T15:02:19.674Z,68.6
2017-11-04T15:07:03.464Z,69.0
2017-11-04T15:12:03.839Z,68.0
2017-11-04T15:17:22.511Z,65.2
2017-11-04T15:22:03.618Z,65.1
2017-11-04T15:27:03.879Z,65.2
2017-11-04T15:32:28.387Z,68.4
2017-11-04T15:37:03.102Z,68.4
2017-11-04T15:42:03.582Z,70.8
2017-11-04T15:47:23.693Z,71.4
2017-11-04T15:52:03.182Z,71.4
2017-11-04T15:57:03.427Z,72.4
2017-11-04T16:02:23.205Z,72.4
2017-11-04T16:07:03.812Z,72.5
2017-11-04T16:12:03.076Z,72.7
2017-11-04T16:17:25.252Z,72.6
2017-11-04T16:22:03.868Z,72.6
2017-11-04T16:27:03.361Z,72.4
2017-11-04T16:32:11.743Z,72.2
2017-11-04T16:37:03.107Z,72.2
2017-11-04T16:42:03.415Z,72.3
2017-11-04T16:47:04.059Z,72.3
2017-11-04T16:52:03.177Z,72.2
2017-11-04T16:57:03.362Z,72.2
2017-11-04T17:02:24.398Z,72.4
2017-11-04T17:07:25.043Z,72.0
2017-11-04T17:12:24.658Z,72.0
2017-11-04T17:17:02.506Z,71.8
2017-11-04T17:22:02.722Z,71.8
2017-11-04T17:27:03.056Z,71.6
2017-11-04T17:32:02.898Z,71.5
2017-11-04T17:37:02.826Z,71.5
2017-11-04T17:42:03.005Z,71.6
2017-11-04T17:47:02.432Z,71.7
2017-11-04T17:52:02.762Z,71.7
2017-11-04T17:57:03.048Z,71.7
2017-11-04T18:02:02.427Z,72.0
2017-11-04T18:07:02.797Z,72.2
2017-11-04T18:12:03.236Z,72.0
2017-11-04T18:17:03.374Z,71.8
2017-11-04T18:22:03.804Z,72.0
2017-11-04T18:27:03.098Z,72.0
2017-11-04T18:32:03.434Z,71.9
2017-11-04T18:37:03.693Z,71.9
2017-11-04T18:42:03.056Z,71.9
2017-11-04T18:47:03.327Z,71.7
2017-11-04T18:52:03.625Z,71.8
2017-11-04T18:57:02.968Z,71.4
2017-11-04T19:02:03.376Z,71.2
2017-11-04T19:07:03.731Z,71.2
2017-11-04T19:12:03.255Z,71.2
2017-11-04T19:17:03.710Z,71.6
2017-11-04T19:22:04.023Z,71.4
2017-11-04T19:27:03.263Z,71.4
2017-11-04T19:32:03.612Z,71.4
2017-11-04T19:37:03.917Z,71.2
2017-11-04T19:42:03.268Z,71.3
2017-11-04T19:47:03.538Z,71.3
2017-11-04T19:52:03.898Z,71.2
2017-11-04T19:57:03.292Z,71.2
2017-11-04T20:02:03.627Z,71.2
2017-11-04T20:07:03.942Z,71.1
2017-11-04T20:12:03.488Z,71.0
2017-11-04T20:17:03.841Z,71.0
2017-11-04T20:22:03.166Z,71.1
2017-11-04T20:27:03.526Z,71.2
2017-11-04T20:32:03.867Z,70.8
2017-11-04T20:37:03.198Z,70.8
2017-11-04T20:42:03.475Z,70.5
2017-11-04T20:47:03.768Z,70.6
2017-11-04T20:52:03.116Z,70.5
2017-11-04T20:57:03.403Z,70.5
2017-11-04T21:02:03.792Z,70.6
2017-11-04T21:07:03.216Z,71.2
2017-11-04T21:12:03.595Z,70.4
2017-11-04T21:17:04.294Z,70.5
2017-11-04T21:22:03.319Z,70.4
2017-11-04T21:27:03.562Z,70.2
2017-11-04T21:32:03.890Z,70.1
2017-11-04T21:37:03.253Z,70.0
2017-11-04T21:42:03.414Z,69.9
2017-11-04T21:47:03.858Z,70.0
2017-11-04T21:52:03.191Z,70.0
2017-11-04T21:57:03.426Z,70.0
2017-11-04T22:02:03.972Z,69.8
2017-11-04T22:07:03.407Z,69.8
2017-11-04T22:12:03.674Z,69.9
2017-11-04T22:17:04.070Z,69.9
2017-11-04T22:22:03.404Z,69.5
2017-11-04T22:27:03.694Z,69.0
2017-11-04T22:32:04.296Z,69.2
2017-11-04T22:37:03.399Z,69.1
2017-11-04T22:42:03.559Z,68.8
2017-11-04T22:47:04.116Z,68.8
2017-11-04T22:52:03.273Z,69.3
2017-11-04T22:57:03.551Z,69.1
2017-11-04T23:02:02.932Z,68.6
2017-11-04T23:07:03.580Z,68.6
2017-11-04T23:12:03.665Z,68.7
2017-11-04T23:22:04.000Z,68.8
2017-11-04T23:27:03.470Z,68.6
2017-11-04T23:32:03.187Z,68.4
2017-11-04T23:37:03.537Z,68.5
2017-11-04T23:42:03.283Z,68.4
2017-11-04T23:47:03.219Z,68.0
2017-11-04T23:52:03.763Z,68.1
2017-11-04T23:57:03.562Z,67.8
